Time;durP1;ratioP1;P1;durP2;ratioP2;P2;SDS_P1;SDS_P2;PMS_P1;PMS_P2;Temp;Humidity;BMP_temperature;BMP_pressure;BME280_temperature;BME280_humidity;BME280_pressure;Samples;Min_cycle;Max_cycle;Signal;HPM_P1;HPM_P2
2023/08/29 00:00:23;;;;;;;3.17;2.88;;;;;;;13.82;85.07;98184.50;5094321;28;20081;-46
2023/08/29 00:02:49;;;;;;;3.20;2.65;;;;;;;13.68;85.18;98192.69;5092961;28;20024;-46
2023/08/29 00:05:15;;;;;;;2.33;2.13;;;;;;;13.55;85.78;98191.09;5092659;28;20134;-46
2023/08/29 00:07:41;;;;;;;5.15;2.42;;;;;;;13.50;86.19;98187.53;5094202;28;20047;-46
2023/08/29 00:10:08;;;;;;;13.52;3.78;;;;;;;13.42;86.46;98198.44;5094111;28;20070;-46
2023/08/29 00:12:33;;;;;;;21.80;3.40;;;;;;;13.46;87.49;98200.41;5094087;28;20155;-46
2023/08/29 00:15:00;;;;;;;14.95;3.63;;;;;;;13.56;87.81;98192.69;5092827;28;20107;-46
2023/08/29 00:17:27;;;;;;;18.48;2.80;;;;;;;13.71;88.00;98191.41;5092625;28;20020;-47
2023/08/29 00:19:55;;;;;;;13.52;2.95;;;;;;;13.76;87.62;98179.13;5093832;28;20028;-46
2023/08/29 00:22:21;;;;;;;6.82;2.50;;;;;;;13.75;87.35;98179.34;5093896;28;20024;-46
2023/08/29 00:24:52;;;;;;;3.63;2.10;;;;;;;13.74;87.54;98178.56;5093836;28;20077;-46
2023/08/29 00:27:19;;;;;;;3.15;2.38;;;;;;;13.72;87.31;98187.72;5093810;28;20512;-46
2023/08/29 00:29:45;;;;;;;4.88;2.20;;;;;;;13.73;87.63;98189.34;5093986;28;20031;-46
2023/08/29 00:32:11;;;;;;;10.05;2.85;;;;;;;13.71;87.58;98189.56;5093578;28;20028;-46
2023/08/29 00:34:37;;;;;;;3.50;2.30;;;;;;;13.71;87.37;98191.41;5093646;28;20066;-46
2023/08/29 00:37:03;;;;;;;3.47;2.67;;;;;;;13.58;86.92;98182.72;5093520;28;20557;-46
2023/08/29 00:39:29;;;;;;;3.75;2.70;;;;;;;13.45;87.13;98180.31;5092195;28;20624;-46
2023/08/29 00:41:54;;;;;;;5.47;3.13;;;;;;;13.38;87.60;98175.19;5093509;28;20099;-46
2023/08/29 00:44:21;;;;;;;4.47;3.20;;;;;;;13.42;88.31;98185.25;5093780;28;20101;-46
2023/08/29 00:46:47;;;;;;;5.80;2.97;;;;;;;13.48;88.42;98184.31;5093369;28;20391;-46
2023/08/29 00:49:16;;;;;;;4.45;2.92;;;;;;;13.56;88.40;98181.31;5093379;28;20028;-46
2023/08/29 00:51:42;;;;;;;3.20;2.22;;;;;;;13.55;88.34;98179.75;5093300;28;20036;-46
2023/08/29 00:54:08;;;;;;;5.90;2.60;;;;;;;13.44;87.93;98175.28;5091932;28;20020;-46
2023/08/29 00:56:35;;;;;;;5.15;2.78;;;;;;;13.29;88.42;98173.09;5093074;28;20035;-46
2023/08/29 00:59:02;;;;;;;5.07;2.90;;;;;;;13.27;88.43;98177.78;5093106;28;20024;-46
2023/08/29 01:01:31;;;;;;;7.18;3.03;;;;;;;13.29;88.86;98171.28;5091774;28;20042;-46
2023/08/29 01:03:57;;;;;;;3.47;2.92;;;;;;;13.35;89.31;98170.34;5093069;28;20032;-46
2023/08/29 01:06:24;;;;;;;6.63;3.10;;;;;;;13.39;89.16;98168.06;5092770;28;20040;-46
2023/08/29 01:08:50;;;;;;;6.88;2.80;;;;;;;13.37;89.08;98165.66;5091875;28;20024;-46
2023/08/29 01:11:20;;;;;;;6.38;2.60;;;;;;;13.31;89.12;98166.59;5092966;28;20024;-46
2023/08/29 01:14:11;;;;;;;6.18;3.10;;;;;;;13.31;89.25;98160.50;5092965;28;20122;-46
2023/08/29 01:16:48;;;;;;;6.82;3.35;;;;;;;13.31;89.60;98163.16;5091506;28;20050;-47
2023/08/29 01:19:15;;;;;;;10.27;3.35;;;;;;;13.29;89.27;98173.91;5091569;28;20028;-46
2023/08/29 01:22:15;;;;;;;4.13;2.90;;;;;;;13.28;89.90;98163.56;5092723;28;20012;-46
2023/08/29 01:25:00;;;;;;;4.45;3.05;;;;;;;13.28;89.89;98161.75;5092774;28;20028;-46
2023/08/29 01:27:27;;;;;;;7.00;3.33;;;;;;;13.34;89.98;98167.94;5092672;28;20050;-46
2023/08/29 01:29:53;;;;;;;6.38;3.20;;;;;;;13.36;90.17;98171.16;5092547;28;20051;-46
2023/08/29 01:32:19;;;;;;;5.70;2.80;;;;;;;13.34;89.79;98166.13;5092549;28;20059;-46
2023/08/29 01:34:46;;;;;;;5.03;3.15;;;;;;;13.36;89.95;98169.34;5092495;28;20056;-46
2023/08/29 01:37:12;;;;;;;7.03;3.15;;;;;;;13.45;90.17;98167.16;5092378;28;20099;-46
2023/08/29 01:39:38;;;;;;;3.85;3.10;;;;;;;13.51;90.17;98173.31;5092755;28;20120;-46
2023/08/29 01:42:03;;;;;;;6.97;3.10;;;;;;;13.58;90.33;98169.53;5092412;28;20032;-46
2023/08/29 01:44:29;;;;;;;6.15;2.80;;;;;;;13.70;90.07;98177.44;5091018;28;20082;-46
2023/08/29 01:46:55;;;;;;;6.18;3.38;;;;;;;13.77;89.63;98178.09;5091074;28;20022;-46
2023/08/29 01:49:20;;;;;;;5.40;3.38;;;;;;;13.87;89.47;98176.69;5092283;28;20032;-46
2023/08/29 01:51:46;;;;;;;6.82;3.45;;;;;;;13.91;89.02;98177.81;5090889;28;20051;-46
2023/08/29 01:54:12;;;;;;;3.88;3.00;;;;;;;14.02;88.92;98178.81;5090991;28;20028;-46
2023/08/29 01:56:42;;;;;;;6.07;3.72;;;;;;;14.07;88.15;98179.72;5090727;28;20050;-46
2023/08/29 01:59:08;;;;;;;6.00;3.80;;;;;;;14.13;88.43;98180.63;5092099;28;20024;-46
2023/08/29 02:01:34;;;;;;;5.68;4.20;;;;;;;14.21;87.66;98179.44;5074015;28;20012;-46
2023/08/29 02:04:00;;;;;;;6.03;3.58;;;;;;;14.27;87.44;98181.16;5092120;28;20107;-46
2023/08/29 02:06:25;;;;;;;8.57;3.58;;;;;;;14.28;87.18;98174.81;5090455;28;20105;-46
2023/08/29 02:08:51;;;;;;;4.68;3.45;;;;;;;14.26;86.71;98174.25;5092039;28;20023;-46
2023/08/29 02:11:17;;;;;;;8.07;3.30;;;;;;;14.23;86.68;98180.00;5090660;28;20036;-46
2023/08/29 02:13:42;;;;;;;6.63;3.63;;;;;;;14.22;86.70;98178.41;5091958;28;20052;-46
2023/08/29 02:16:08;;;;;;;4.20;3.42;;;;;;;14.27;86.94;98175.88;5091876;28;20481;-46
2023/08/29 02:18:34;;;;;;;7.80;3.90;;;;;;;14.31;86.68;98177.78;5090613;28;20028;-46
2023/08/29 02:21:00;;;;;;;8.93;3.30;;;;;;;14.34;86.48;98179.94;5091401;28;20072;-47
2023/08/29 02:23:25;;;;;;;10.43;3.13;;;;;;;14.40;86.27;98180.84;5091917;28;20024;-46
2023/08/29 02:26:05;;;;;;;10.80;3.80;;;;;;;14.43;86.13;98185.66;5091827;28;20111;-46
2023/08/29 02:28:38;;;;;;;8.25;3.42;;;;;;;14.42;85.77;98175.31;5091844;28;20104;-46
2023/08/29 02:31:09;;;;;;;6.45;3.40;;;;;;;14.39;85.68;98180.03;5092359;28;20051;-46
2023/08/29 02:33:37;;;;;;;10.55;3.45;;;;;;;14.43;85.71;98183.00;5090526;28;20024;-47
2023/08/29 02:36:04;;;;;;;6.72;3.47;;;;;;;14.42;85.65;98178.75;5091624;28;20102;-46
2023/08/29 02:38:30;;;;;;;5.60;3.78;;;;;;;14.41;85.57;98177.16;5091995;28;20044;-46
2023/08/29 02:40:56;;;;;;;5.70;2.97;;;;;;;14.43;85.41;98171.63;5090316;28;20028;-46
2023/08/29 02:43:22;;;;;;;5.55;2.85;;;;;;;14.43;85.46;98169.81;5091710;28;20053;-46
2023/08/29 02:45:50;;;;;;;9.80;3.03;;;;;;;14.41;85.15;98171.06;5090322;28;20031;-47
2023/08/29 02:48:15;;;;;;;4.25;2.70;;;;;;;14.39;85.18;98180.03;5091689;28;20402;-47
2023/08/29 02:50:42;;;;;;;8.82;3.20;;;;;;;14.35;85.23;98164.91;5091555;28;20024;-46
2023/08/29 02:53:08;;;;;;;3.13;2.85;;;;;;;14.35;85.15;98175.47;5091627;28;20031;-47
2023/08/29 02:55:34;;;;;;;4.85;3.00;;;;;;;14.31;85.10;98171.72;5091642;28;20493;-46
2023/08/29 02:57:59;;;;;;;8.73;2.80;;;;;;;14.30;85.03;98178.00;5090261;28;20091;-46
2023/08/29 03:00:25;;;;;;;6.22;2.78;;;;;;;14.30;85.20;98175.38;5091568;28;20028;-47
2023/08/29 03:02:51;;;;;;;5.93;2.63;;;;;;;14.31;85.11;98177.00;5091480;28;20117;-47
2023/08/29 03:05:16;;;;;;;3.45;2.50;;;;;;;14.27;84.99;98173.22;5091277;28;20051;-46
2023/08/29 03:07:42;;;;;;;5.93;2.78;;;;;;;14.21;84.85;98168.88;5091627;28;20027;-46
2023/08/29 03:10:08;;;;;;;5.07;3.10;;;;;;;14.09;85.09;98174.22;5090174;28;20484;-46
2023/08/29 03:12:34;;;;;;;4.80;3.20;;;;;;;14.02;85.33;98163.78;5091487;28;20016;-46
2023/08/29 03:15:00;;;;;;;5.60;3.08;;;;;;;13.95;85.72;98168.41;5091418;28;20016;-46
2023/08/29 03:17:26;;;;;;;3.25;2.85;;;;;;;13.92;86.10;98166.22;5091309;28;20028;-46
2023/08/29 03:19:51;;;;;;;7.43;3.20;;;;;;;13.88;86.31;98173.81;5091351;28;20047;-46
2023/08/29 03:22:17;;;;;;;5.22;3.22;;;;;;;13.84;86.39;98166.59;5091341;28;20028;-46
2023/08/29 03:24:46;;;;;;;4.13;3.42;;;;;;;13.78;86.59;98168.31;5090025;28;20028;-46
2023/08/29 03:27:13;;;;;;;8.88;3.42;;;;;;;13.78;87.01;98160.41;5091259;28;20023;-46
2023/08/29 03:29:39;;;;;;;7.85;3.63;;;;;;;13.72;86.83;98164.81;5091229;28;20394;-46
2023/08/29 03:32:05;;;;;;;5.05;3.40;;;;;;;13.63;87.03;98165.41;5091797;28;20102;-46
2023/08/29 03:34:31;;;;;;;5.40;3.90;;;;;;;13.58;87.74;98169.53;5093510;28;20028;-46
2023/08/29 03:36:57;;;;;;;5.20;3.33;;;;;;;13.53;88.05;98166.78;5094644;28;20020;-46
2023/08/29 03:39:22;;;;;;;5.07;3.88;;;;;;;13.50;88.39;98171.72;5093485;28;20039;-46
2023/08/29 03:41:48;;;;;;;6.65;3.70;;;;;;;13.50;88.54;98167.25;5094691;28;20031;-46
2023/08/29 03:44:14;;;;;;;7.55;3.72;;;;;;;13.49;88.88;98165.66;5093360;28;20489;-46
2023/08/29 03:46:39;;;;;;;8.35;3.83;;;;;;;13.51;89.06;98174.13;5094600;28;20028;-46
2023/08/29 03:49:05;;;;;;;5.13;4.18;;;;;;;13.48;88.79;98168.50;5094820;28;20024;-46
2023/08/29 03:51:31;;;;;;;4.65;3.58;;;;;;;13.47;88.99;98172.97;5094455;28;20450;-46
2023/08/29 03:53:57;;;;;;;5.32;3.90;;;;;;;13.46;88.99;98170.56;5094449;28;20077;-47
2023/08/29 03:56:22;;;;;;;6.20;3.75;;;;;;;13.38;89.04;98175.19;5094348;28;20020;-46
2023/08/29 03:58:49;;;;;;;3.97;3.58;;;;;;;13.32;89.35;98176.09;5094409;28;20031;-46
2023/08/29 04:01:19;;;;;;;6.13;4.00;;;;;;;13.29;89.37;98178.38;5094315;28;20096;-46
2023/08/29 04:03:45;;;;;;;7.63;3.25;;;;;;;13.27;89.58;98172.53;5094619;28;20032;-46
2023/08/29 04:06:11;;;;;;;5.13;3.22;;;;;;;13.26;89.81;98182.28;5094002;28;20233;-46
2023/08/29 04:08:36;;;;;;;5.25;3.92;;;;;;;13.22;90.07;98188.22;5092878;28;20020;-46
2023/08/29 04:11:05;;;;;;;6.68;4.30;;;;;;;13.22;90.35;98186.41;5094126;28;20111;-46
2023/08/29 04:13:32;;;;;;;4.13;3.78;;;;;;;13.26;90.60;98189.34;5092785;28;20020;-46
2023/08/29 04:16:03;;;;;;;3.67;3.20;;;;;;;13.28;90.38;98188.09;5093993;28;20032;-46
2023/08/29 04:18:32;;;;;;;3.88;3.35;;;;;;;13.26;90.60;98184.91;5093896;28;20051;-46
2023/08/29 04:20:59;;;;;;;4.90;3.70;;;;;;;13.25;90.26;98182.50;5093904;28;20032;-46
2023/08/29 04:23:25;;;;;;;7.82;3.72;;;;;;;13.23;90.50;98180.06;5092872;28;20016;-46
2023/08/29 04:25:59;;;;;;;5.15;3.08;;;;;;;13.21;90.68;98179.50;5093757;28;20409;-46
2023/08/29 04:28:26;;;;;;;8.95;4.05;;;;;;;13.19;90.78;98182.38;5092591;28;20034;-46
2023/08/29 04:30:51;;;;;;;4.97;3.08;;;;;;;13.18;90.77;98182.63;5093750;28;20078;-46
2023/08/29 04:33:17;;;;;;;7.68;3.58;;;;;;;13.12;90.97;98181.69;5093733;28;20419;-46
2023/08/29 04:35:44;;;;;;;8.57;3.83;;;;;;;13.12;91.17;98188.78;5093534;28;20104;-46
2023/08/29 04:38:09;;;;;;;8.15;3.97;;;;;;;13.10;91.01;98186.38;5093515;28;20024;-46
2023/08/29 04:40:35;;;;;;;6.68;3.63;;;;;;;13.12;91.41;98184.31;5093547;28;20043;-46
2023/08/29 04:43:01;;;;;;;7.50;3.90;;;;;;;13.14;91.70;98198.06;5093190;28;20027;-46
2023/08/29 04:45:27;;;;;;;9.68;3.80;;;;;;;13.17;91.86;98194.97;5093382;28;20024;-46
2023/08/29 04:47:52;;;;;;;9.35;3.33;;;;;;;13.22;91.73;98196.94;5091896;28;20034;-46
2023/08/29 04:50:20;;;;;;;4.40;3.25;;;;;;;13.21;91.81;98197.16;5091969;28;20056;-46
2023/08/29 04:52:46;;;;;;;6.32;3.60;;;;;;;13.21;91.60;98191.88;5093279;28;20052;-46
2023/08/29 04:55:11;;;;;;;7.70;2.80;;;;;;;13.25;91.59;98190.41;5091995;28;20056;-46
2023/08/29 04:57:37;;;;;;;7.13;3.38;;;;;;;13.28;91.44;98189.91;5091797;28;20046;-46
2023/08/29 05:00:05;;;;;;;4.93;3.17;;;;;;;13.33;91.48;98187.44;5093084;28;20500;-46
2023/08/29 05:02:30;;;;;;;4.93;3.20;;;;;;;13.39;91.15;98181.25;5093148;28;20028;-46
2023/08/29 05:04:57;;;;;;;6.72;3.20;;;;;;;13.44;90.98;98178.72;5092932;28;20046;-46
2023/08/29 05:07:23;;;;;;;8.80;3.10;;;;;;;13.51;90.79;98181.25;5092974;28;20023;-46
2023/08/29 05:09:48;;;;;;;7.05;3.33;;;;;;;13.56;90.31;98176.06;5093013;28;20027;-46
2023/08/29 05:12:15;;;;;;;8.40;2.80;;;;;;;13.60;90.28;98182.47;5092947;28;20024;-46
2023/08/29 05:14:42;;;;;;;4.97;2.58;;;;;;;13.62;89.60;98180.41;5092814;28;20573;-46
2023/08/29 05:17:09;;;;;;;6.53;3.15;;;;;;;13.65;89.49;98179.94;5092787;28;20111;-46
2023/08/29 05:19:34;;;;;;;7.43;2.40;;;;;;;13.67;89.36;98167.34;5092844;28;20060;-46
2023/08/29 05:22:00;;;;;;;4.38;2.63;;;;;;;13.68;89.28;98165.50;5092758;28;20047;-46
2023/08/29 05:24:26;;;;;;;4.22;2.38;;;;;;;13.67;89.17;98172.59;5091442;28;20031;-46
2023/08/29 05:26:51;;;;;;;6.82;2.58;;;;;;;13.68;88.66;98170.75;5091333;28;20198;-46
2023/08/29 05:29:17;;;;;;;9.93;3.53;;;;;;;13.69;88.95;98165.25;5092865;28;20093;-46
2023/08/29 05:31:43;;;;;;;6.97;2.90;;;;;;;13.77;88.55;98174.66;5092555;28;20024;-47
2023/08/29 05:34:08;;;;;;;5.40;2.72;;;;;;;13.78;88.42;98174.44;5092609;28;20492;-46
2023/08/29 05:36:34;;;;;;;6.53;2.90;;;;;;;13.77;88.12;98172.00;5092285;28;20107;-46
2023/08/29 05:39:00;;;;;;;13.45;2.92;;;;;;;13.80;87.95;98171.53;5091204;28;20028;-46
2023/08/29 05:41:28;;;;;;;8.43;2.50;;;;;;;13.81;87.60;98169.72;5092422;28;20020;-46
2023/08/29 05:43:54;;;;;;;9.20;3.67;;;;;;;13.86;87.74;98175.06;5092381;28;20499;-46
2023/08/29 05:46:19;;;;;;;13.32;3.10;;;;;;;13.92;87.57;98169.69;5092363;28;20058;-46
2023/08/29 05:48:45;;;;;;;8.63;3.55;;;;;;;13.94;87.26;98177.34;5092344;28;20512;-46
2023/08/29 05:51:10;;;;;;;11.07;3.20;;;;;;;13.97;87.15;98164.50;5092426;28;20040;-46
2023/08/29 05:53:36;;;;;;;10.50;2.83;;;;;;;14.02;86.75;98174.34;5092310;28;20055;-46
2023/08/29 05:56:03;;;;;;;12.43;2.70;;;;;;;14.03;86.33;98181.22;5091578;28;20021;-46
2023/08/29 05:58:29;;;;;;;10.95;3.53;;;;;;;14.06;86.40;98190.50;5092306;28;20031;-46
2023/08/29 06:00:55;;;;;;;13.25;3.38;;;;;;;14.13;86.25;98189.34;5092171;28;20393;-46
2023/08/29 06:03:21;;;;;;;17.75;3.90;;;;;;;14.27;86.18;98191.69;5092104;28;20382;-46
2023/08/29 06:05:50;;;;;;;8.35;2.75;;;;;;;14.39;85.67;98189.81;5091718;28;20044;-46
2023/08/29 06:08:16;;;;;;;7.30;2.90;;;;;;;14.50;84.86;98188.13;5092026;28;20031;-46
2023/08/29 06:10:42;;;;;;;13.43;3.47;;;;;;;14.62;84.51;98188.09;5090635;28;20484;-46
2023/08/29 06:13:08;;;;;;;10.52;2.75;;;;;;;14.80;83.90;98189.72;5090694;28;20051;-46
2023/08/29 06:15:33;;;;;;;17.92;4.07;;;;;;;15.05;83.25;98195.41;5091925;28;20024;-46
2023/08/29 06:17:59;;;;;;;14.55;4.03;;;;;;;15.33;82.30;98197.13;5091900;28;20023;-46
2023/08/29 06:20:25;;;;;;;7.63;2.70;;;;;;;15.56;81.05;98197.97;5091930;28;20035;-47
2023/08/29 06:22:51;;;;;;;5.28;3.17;;;;;;;15.72;79.71;98198.97;5091814;28;20057;-47
2023/08/29 06:25:17;;;;;;;8.80;3.00;;;;;;;15.85;79.03;98197.81;5090688;28;20111;-46
2023/08/29 06:27:42;;;;;;;6.30;2.40;;;;;;;15.86;78.50;98194.16;5092084;28;20027;-47
2023/08/29 06:30:12;;;;;;;10.10;2.38;;;;;;;15.82;78.59;98195.69;5091782;28;20496;-47
2023/08/29 06:32:38;;;;;;;5.80;2.60;;;;;;;15.80;78.22;98206.50;5091676;28;20024;-47
2023/08/29 06:35:05;;;;;;;11.80;3.35;;;;;;;15.83;77.92;98210.50;5091770;28;20028;-47
2023/08/29 06:37:31;;;;;;;5.88;2.80;;;;;;;15.86;77.90;98202.88;5090395;28;20017;-47
2023/08/29 06:39:57;;;;;;;10.82;2.97;;;;;;;15.94;77.46;98210.38;5091938;28;20093;-47
2023/08/29 06:42:23;;;;;;;11.75;2.42;;;;;;;16.00;76.93;98213.88;5090359;28;20498;-47
2023/08/29 06:44:48;;;;;;;11.43;2.83;;;;;;;16.05;76.85;98207.84;5091673;28;20020;-47
2023/08/29 06:47:14;;;;;;;6.10;2.35;;;;;;;16.08;76.29;98208.16;5091637;28;20035;-47
2023/08/29 06:49:39;;;;;;;7.70;2.50;;;;;;;16.10;75.93;98210.56;5091934;28;20028;-47
2023/08/29 06:52:05;;;;;;;38.03;7.32;;;;;;;16.16;75.92;98210.38;5091564;28;20468;-47
2023/08/29 06:54:31;;;;;;;19.48;3.90;;;;;;;16.24;75.30;98225.03;5091499;28;20397;-46
2023/08/29 06:56:57;;;;;;;10.05;2.65;;;;;;;16.30;75.22;98225.88;5091512;28;20063;-47
2023/08/29 06:59:22;;;;;;;6.38;2.55;;;;;;;16.38;75.20;98218.28;5091518;28;20107;-47
2023/08/29 07:01:48;;;;;;;11.60;2.50;;;;;;;16.45;74.78;98220.72;5091508;28;20028;-46
2023/08/29 07:04:14;;;;;;;25.40;5.25;;;;;;;16.51;74.54;98218.94;5091534;28;20035;-46
2023/08/29 07:06:39;;;;;;;10.60;3.10;;;;;;;16.55;74.64;98225.31;5092705;28;20402;-46
2023/08/29 07:09:05;;;;;;;8.55;2.90;;;;;;;16.53;74.45;98228.22;5095360;28;20046;-46
2023/08/29 07:11:31;;;;;;;31.15;7.60;;;;;;;16.53;74.49;98227.41;5095274;28;20363;-46
2023/08/29 07:13:57;;;;;;;17.65;3.30;;;;;;;16.62;74.52;98228.59;5093935;28;20016;-46
2023/08/29 07:16:22;;;;;;;9.18;2.75;;;;;;;16.72;73.91;98225.19;5095077;28;20028;-46
2023/08/29 07:18:48;;;;;;;7.75;2.28;;;;;;;16.68;73.80;98227.56;5093854;28;20123;-46
2023/08/29 07:21:14;;;;;;;11.88;2.72;;;;;;;16.58;73.97;98219.53;5095025;28;20390;-47
2023/08/29 07:23:40;;;;;;;11.35;2.60;;;;;;;16.48;74.25;98227.34;5095069;28;20020;-47
2023/08/29 07:26:06;;;;;;;8.85;2.65;;;;;;;16.48;74.27;98232.66;5094979;28;20023;-46
2023/08/29 07:28:31;;;;;;;9.35;2.95;;;;;;;16.68;74.46;98232.06;5094973;28;20055;-46
2023/08/29 07:30:58;;;;;;;17.48;3.25;;;;;;;17.02;73.79;98235.28;5094966;28;20492;-46
2023/08/29 07:33:23;;;;;;;9.70;2.50;;;;;;;17.96;71.91;98230.31;5094803;28;20052;-46
2023/08/29 07:35:49;;;;;;;10.18;2.25;;;;;;;18.77;68.55;98224.41;5094826;28;20458;-47
2023/08/29 07:38:17;;;;;;;11.07;2.65;;;;;;;19.18;66.05;98225.50;5094798;28;20103;-45
2023/08/29 07:40:46;;;;;;;16.85;3.03;;;;;;;19.15;65.14;98226.81;5094693;28;20485;-44
2023/08/29 07:43:13;;;;;;;12.32;2.50;;;;;;;18.98;65.32;98223.66;5093429;28;20062;-45
2023/08/29 07:45:39;;;;;;;10.57;2.67;;;;;;;18.76;65.58;98230.00;5093377;28;20051;-45
2023/08/29 07:48:05;;;;;;;7.65;2.28;;;;;;;18.50;65.90;98234.47;5094634;28;20054;-45
2023/08/29 07:50:31;;;;;;;10.48;2.83;;;;;;;18.23;66.71;98245.28;5093368;28;20024;-44
2023/08/29 07:52:57;;;;;;;10.13;2.90;;;;;;;17.92;67.54;98243.31;5094464;28;20027;-44
2023/08/29 07:55:24;;;;;;;13.95;3.00;;;;;;;17.70;68.54;98247.94;5093155;28;20032;-45
2023/08/29 07:57:50;;;;;;;18.05;3.80;;;;;;;17.61;69.05;98237.03;5093067;28;20027;-44
2023/08/29 08:00:17;;;;;;;10.65;3.33;;;;;;;17.68;69.31;98240.25;5094711;28;20099;-45
2023/08/29 08:02:44;;;;;;;13.45;2.80;;;;;;;17.82;69.18;98253.84;5094291;28;20052;-44
2023/08/29 08:05:12;;;;;;;11.35;2.60;;;;;;;18.11;68.87;98243.66;5094248;28;20424;-44
2023/08/29 08:07:39;;;;;;;6.95;2.38;;;;;;;18.80;67.43;98240.94;5094507;28;20489;-45
2023/08/29 08:10:05;;;;;;;9.07;3.05;;;;;;;19.28;65.34;98241.47;5092889;28;20028;-45
2023/08/29 08:12:32;;;;;;;15.63;4.28;;;;;;;19.24;64.78;98243.84;5094108;28;20028;-45
2023/08/29 08:14:58;;;;;;;32.55;6.22;;;;;;;19.10;64.66;98240.94;5092795;28;20024;-45
2023/08/29 08:17:24;;;;;;;18.80;4.05;;;;;;;19.00;65.12;98243.59;5092524;28;20485;-44
2023/08/29 08:19:50;;;;;;;27.55;5.82;;;;;;;19.05;64.92;98240.91;5093820;28;20067;-45
2023/08/29 08:22:16;;;;;;;17.63;3.92;;;;;;;19.15;64.66;98237.47;5093924;28;20389;-45
2023/08/29 08:24:41;;;;;;;15.73;2.88;;;;;;;19.28;63.62;98247.56;5093870;28;20016;-44
2023/08/29 08:27:07;;;;;;;16.17;3.15;;;;;;;19.49;62.97;98245.66;5093803;28;20518;-44
2023/08/29 08:29:33;;;;;;;26.55;4.97;;;;;;;19.80;62.04;98234.97;5093821;28;20024;-45
2023/08/29 08:32:00;;;;;;;16.42;3.45;;;;;;;20.18;61.27;98237.22;5093769;28;20069;-45
2023/08/29 08:34:25;;;;;;;8.05;2.00;;;;;;;21.23;58.25;98230.66;5093686;28;20393;-45
2023/08/29 08:36:51;;;;;;;11.63;2.10;;;;;;;22.80;54.45;98227.44;5093564;28;20021;-45
2023/08/29 08:39:17;;;;;;;4.28;1.55;;;;;;;25.25;49.10;98228.94;5093615;28;20487;-45
2023/08/29 08:41:43;;;;;;;6.93;1.70;;;;;;;26.90;44.52;98229.34;5092220;28;20405;-45
2023/08/29 08:44:11;;;;;;;10.63;1.75;;;;;;;27.38;41.31;98218.63;5092087;28;20035;-45
2023/08/29 08:46:38;;;;;;;15.88;1.95;;;;;;;26.87;41.46;98221.09;5093292;28;20032;-45
2023/08/29 08:49:04;;;;;;;8.13;2.25;;;;;;;26.53;42.37;98225.38;5093413;28;20125;-45
2023/08/29 08:51:31;;;;;;;7.32;2.15;;;;;;;26.27;42.54;98228.03;5093219;28;20030;-46
2023/08/29 08:53:57;;;;;;;3.78;1.67;;;;;;;25.75;42.46;98228.69;5093529;28;20508;-45
2023/08/29 08:56:24;;;;;;;11.32;2.05;;;;;;;25.24;43.74;98224.69;5093148;28;20110;-45
2023/08/29 08:58:50;;;;;;;3.95;1.25;;;;;;;24.80;44.32;98219.00;5093166;28;20051;-45
2023/08/29 09:01:16;;;;;;;7.40;1.08;;;;;;;24.32;44.88;98223.03;5091780;28;20047;-45
2023/08/29 09:03:45;;;;;;;8.45;1.70;;;;;;;23.86;45.07;98221.31;5093118;28;20056;-45
2023/08/29 09:06:14;;;;;;;6.10;1.17;;;;;;;23.66;45.73;98217.13;5092711;28;20128;-45
2023/08/29 09:08:40;;;;;;;5.45;1.45;;;;;;;23.60;46.31;98220.97;5091725;28;20529;-45
2023/08/29 09:11:06;;;;;;;8.63;2.00;;;;;;;23.56;45.51;98228.03;5091707;28;20044;-45
2023/08/29 09:13:31;;;;;;;2.55;1.00;;;;;;;23.41;45.69;98222.97;5092898;28;20073;-44
2023/08/29 09:16:01;;;;;;;5.38;1.27;;;;;;;23.47;46.14;98227.13;5091616;28;20035;-44
2023/08/29 09:18:31;;;;;;;4.20;1.10;;;;;;;23.86;45.22;98220.50;5092765;28;20140;-44
2023/08/29 09:21:00;;;;;;;9.02;1.40;;;;;;;24.76;43.88;98218.03;5092780;28;20052;-44
2023/08/29 09:23:27;;;;;;;6.47;1.40;;;;;;;26.01;40.79;98209.19;5093057;28;20082;-45
2023/08/29 09:25:58;;;;;;;3.72;1.20;;;;;;;27.24;38.45;98208.81;5091390;28;20032;-46
2023/08/29 09:28:29;;;;;;;3.70;1.40;;;;;;;27.40;37.31;98208.31;5092606;28;20058;-45
2023/08/29 09:31:09;;;;;;;10.32;1.75;;;;;;;27.33;38.18;98211.50;5090376;28;20032;-45
2023/08/29 09:33:36;;;;;;;4.72;1.10;;;;;;;27.20;38.02;98209.78;5091256;28;20106;-45
2023/08/29 09:36:05;;;;;;;5.15;1.40;;;;;;;26.85;38.89;98210.63;5092544;28;20091;-45
2023/08/29 09:38:33;;;;;;;5.07;1.52;;;;;;;27.36;37.83;98204.69;5092286;28;20065;-46
2023/08/29 09:40:59;;;;;;;6.63;1.60;;;;;;;27.42;37.67;98206.88;5092447;28;20035;-45
2023/08/29 09:43:27;;;;;;;8.18;1.35;;;;;;;26.94;37.05;98207.94;5092361;28;20516;-45
2023/08/29 09:45:54;;;;;;;4.55;1.02;;;;;;;26.19;37.65;98210.78;5092306;28;20024;-45
2023/08/29 09:48:20;;;;;;;2.25;1.20;;;;;;;26.17;38.34;98210.31;5090957;28;20527;-45
2023/08/29 09:50:48;;;;;;;2.70;1.27;;;;;;;27.57;35.98;98200.16;5092278;28;20028;-45
2023/08/29 09:53:17;;;;;;;8.88;1.40;;;;;;;28.02;34.64;98193.44;5092503;28;20386;-45
2023/08/29 09:56:05;;;;;;;8.15;1.67;;;;;;;26.73;36.51;98196.25;5092462;28;20486;-45
2023/08/29 09:58:32;;;;;;;4.18;1.30;;;;;;;25.38;39.22;98203.91;5092590;28;20031;-44
2023/08/29 10:01:00;;;;;;;6.03;1.23;;;;;;;24.59;40.64;98209.84;5092097;28;20032;-45
2023/08/29 10:03:26;;;;;;;6.72;1.13;;;;;;;24.13;41.59;98211.66;5092059;28;20020;-44
2023/08/29 10:05:54;;;;;;;6.78;1.40;;;;;;;23.22;42.94;98210.44;5091839;28;20042;-44
2023/08/29 10:08:29;;;;;;;2.20;1.23;;;;;;;22.59;44.91;98227.75;5090729;28;20028;-44
2023/08/29 10:10:56;;;;;;;5.40;1.08;;;;;;;22.44;46.09;98223.41;5091985;28;20062;-44
2023/08/29 10:13:24;;;;;;;8.85;1.45;;;;;;;22.02;47.12;98217.00;5091887;28;20023;-45
2023/08/29 10:15:51;;;;;;;5.95;2.38;;;;;;;21.57;48.90;98221.81;5091976;28;20099;-44
2023/08/29 10:18:18;;;;;;;2.85;1.15;;;;;;;21.24;49.25;98226.09;5092077;28;20093;-44
2023/08/29 10:20:45;;;;;;;4.25;1.00;;;;;;;21.00;50.22;98221.50;5091883;28;20020;-44
2023/08/29 10:23:15;;;;;;;9.48;1.08;;;;;;;22.40;49.38;98219.75;5091805;28;20031;-45
2023/08/29 10:25:42;;;;;;;2.92;1.30;;;;;;;24.87;44.10;98214.03;5091809;28;20099;-45
2023/08/29 10:28:10;;;;;;;3.05;0.90;;;;;;;26.83;38.37;98204.00;5091769;28;20039;-44
2023/08/29 10:30:39;;;;;;;3.58;1.20;;;;;;;28.49;35.53;98188.63;5092024;28;20394;-45
2023/08/29 10:33:06;;;;;;;6.75;0.82;;;;;;;29.70;32.64;98184.16;5090459;28;20039;-45
2023/08/29 10:35:33;;;;;;;3.95;0.82;;;;;;;30.78;29.61;98178.03;5073642;28;20497;-44
2023/08/29 10:38:16;;;;;;;7.75;1.00;;;;;;;30.57;28.51;98178.25;5090309;28;20024;-45
2023/08/29 10:40:43;;;;;;;8.85;1.05;;;;;;;28.87;30.52;98184.16;5091753;28;20024;-45
2023/08/29 10:43:23;;;;;;;6.43;1.30;;;;;;;27.50;32.73;98189.06;5095823;28;20021;-45
2023/08/29 10:45:54;;;;;;;2.90;0.88;;;;;;;26.65;34.19;98189.78;5095670;28;20025;-45
2023/08/29 10:48:43;;;;;;;4.63;0.90;;;;;;;25.90;35.73;98189.88;5094373;28;20093;-45
2023/08/29 10:51:14;;;;;;;4.55;1.33;;;;;;;25.27;36.54;98192.63;5095424;28;20031;-44
2023/08/29 10:53:46;;;;;;;3.40;1.10;;;;;;;24.49;37.93;98197.47;5095665;28;20042;-44
2023/08/29 10:56:13;;;;;;;3.33;0.93;;;;;;;23.77;39.08;98200.84;5095582;28;20058;-44
2023/08/29 10:58:41;;;;;;;1.20;0.70;;;;;;;23.37;40.33;98208.59;5095521;28;20020;-44
2023/08/29 11:01:27;;;;;;;3.00;0.80;;;;;;;23.11;40.53;98196.44;5095568;28;20693;-44
2023/08/29 11:03:52;;;;;;;;;;;;;;;22.87;40.83;98203.78;5094649;28;20035;-44
2023/08/29 11:06:19;;;;;;;11.75;1.42;;;;;;;22.57;42.08;98207.72;5095107;28;19916;-44
2023/08/29 11:08:45;;;;;;;14.98;1.35;;;;;;;22.44;42.50;98204.69;5095627;28;20055;-44
2023/08/29 11:11:16;;;;;;;9.75;1.25;;;;;;;22.32;42.32;98204.34;5095305;28;20515;-44
2023/08/29 11:14:08;;;;;;;3.20;0.90;;;;;;;22.18;42.52;98200.78;5095259;28;20028;-44
2023/08/29 11:16:35;;;;;;;6.53;1.10;;;;;;;22.91;42.38;98192.19;5094068;28;20070;-44
2023/08/29 11:19:04;;;;;;;3.88;0.88;;;;;;;24.65;39.72;98187.97;5093871;28;20097;-45
2023/08/29 11:21:30;;;;;;;5.40;1.02;;;;;;;26.15;37.35;98193.69;5093775;28;20043;-45
2023/08/29 11:23:58;;;;;;;7.90;1.52;;;;;;;26.57;35.58;98190.53;5095124;28;20441;-45
2023/08/29 11:26:24;;;;;;;5.50;0.80;;;;;;;26.24;35.70;98191.00;5094938;28;20032;-45
2023/08/29 11:28:50;;;;;;;4.75;0.75;;;;;;;25.61;36.02;98190.38;5094996;28;20027;-45
2023/08/29 11:31:20;;;;;;;6.60;0.93;;;;;;;24.84;37.40;98195.84;5093711;28;20028;-44